Time;durP1;ratioP1;P1;durP2;ratioP2;P2;SDS_P1;SDS_P2;PMS_P1;PMS_P2;Temp;Humidity;BMP_temperature;BMP_pressure;BME280_temperature;BME280_humidity;BME280_pressure;Samples;Min_cycle;Max_cycle;Signal;HPM_P1;HPM_P2
2021/12/23 00:02:16;;;;;;;;;55.50;44.00;;;;;;;;5051443;28;45310;-61
2021/12/23 00:04:41;;;;;;;;;64.50;48.00;;;;;;;;5043532;28;45358;-61
2021/12/23 00:07:07;;;;;;;;;64.00;50.25;;;;;;;;5052234;28;45778;-60
2021/12/23 00:10:05;;;;;;;;;53.00;40.50;;;;;;;;5064197;28;45369;-60
2021/12/23 00:12:17;;;;;;;;;63.25;52.25;;;;;;;;5048645;28;45570;-61
2021/12/23 00:14:45;;;;;;;;;55.50;43.25;;;;;;;;5059011;28;45411;-60
2021/12/23 00:17:25;;;;;;;;;64.50;50.50;;;;;;;;5050533;28;46479;-61
2021/12/23 00:25:15;;;;;;;;;59.75;49.75;;;;;;;;5050894;28;45448;-60
2021/12/23 00:27:40;;;;;;;;;58.25;43.75;;;;;;;;5052420;28;45577;-61
2021/12/23 00:30:05;;;;;;;;;57.50;46.00;;;;;;;;5047146;28;45451;-61
2021/12/23 00:32:31;;;;;;;;;55.50;47.00;;;;;;;;5056319;28;45631;-61
2021/12/23 00:34:56;;;;;;;;;59.25;45.75;;;;;;;;5054653;28;45483;-61
2021/12/23 00:37:21;;;;;;;;;63.75;50.50;;;;;;;;5051937;28;46078;-61
2021/12/23 00:39:46;;;;;;;;;54.50;44.25;;;;;;;;5047342;28;45455;-61
2021/12/23 00:42:12;;;;;;;;;51.50;41.00;;;;;;;;5050652;28;45381;-61
2021/12/23 00:44:45;;;;;;;;;59.75;47.00;;;;;;;;5058993;28;45406;-61
2021/12/23 00:47:11;;;;;;;;;60.00;47.00;;;;;;;;5030927;28;47986;-60
2021/12/23 00:49:36;;;;;;;;;70.25;51.75;;;;;;;;5032264;28;45480;-60
2021/12/23 00:52:03;;;;;;;;;61.50;50.00;;;;;;;;5048777;28;45691;-60
2021/12/23 00:54:29;;;;;;;;;60.75;47.25;;;;;;;;5054649;28;45907;-60
2021/12/23 00:56:54;;;;;;;;;52.00;44.00;;;;;;;;5064880;28;45849;-60
2021/12/23 00:59:19;;;;;;;;;57.75;48.25;;;;;;;;5054965;28;45560;-59
2021/12/23 01:01:46;;;;;;;;;56.25;48.25;;;;;;;;5053102;28;45739;-60
2021/12/23 01:04:12;;;;;;;;;59.75;47.00;;;;;;;;5047938;28;46248;-61
2021/12/23 01:06:37;;;;;;;;;59.50;47.00;;;;;;;;5062617;28;45356;-61
2021/12/23 01:09:02;;;;;;;;;61.75;48.25;;;;;;;;5060484;28;45321;-61
2021/12/23 01:11:28;;;;;;;;;59.50;48.50;;;;;;;;5037019;28;45465;-61
2021/12/23 01:14:02;;;;;;;;;57.50;47.25;;;;;;;;5049174;28;45464;-61
2021/12/23 01:19:26;;;;;;;;;47.25;42.75;;;;;;;;4999426;28;45755;-61
2021/12/23 01:21:52;;;;;;;;;61.75;47.50;;;;;;;;4999583;28;45535;-61
2021/12/23 01:24:17;;;;;;;;;61.00;48.50;;;;;;;;5008083;28;45407;-61
2021/12/23 01:26:42;;;;;;;;;65.25;49.00;;;;;;;;4997836;28;46455;-60
2021/12/23 01:29:08;;;;;;;;;63.75;50.25;;;;;;;;5002761;28;45573;-62
2021/12/23 01:31:34;;;;;;;;;61.75;47.50;;;;;;;;5000605;28;45530;-61
2021/12/23 01:34:00;;;;;;;;;61.75;44.75;;;;;;;;4981958;28;45555;-60
2021/12/23 01:36:25;;;;;;;;;64.75;45.75;;;;;;;;4992225;28;45766;-61
2021/12/23 01:38:51;;;;;;;;;58.50;47.25;;;;;;;;4993904;28;45884;-60
2021/12/23 01:41:19;;;;;;;;;62.25;48.75;;;;;;;;4993160;28;45572;-62
2021/12/23 01:43:45;;;;;;;;;66.50;49.75;;;;;;;;4993396;28;45618;-61
2021/12/23 01:46:10;;;;;;;;;55.00;46.25;;;;;;;;4992994;28;45742;-61
2021/12/23 01:48:36;;;;;;;;;59.25;47.25;;;;;;;;4993212;28;45611;-61
2021/12/23 01:51:01;;;;;;;;;56.50;44.50;;;;;;;;4993754;28;45478;-60
2021/12/23 01:53:27;;;;;;;;;65.25;52.25;;;;;;;;4993459;28;46099;-61
2021/12/23 01:55:52;;;;;;;;;57.75;43.00;;;;;;;;5023885;28;46332;-61
2021/12/23 01:58:18;;;;;;;;;56.00;47.25;;;;;;;;5031681;28;45333;-61
2021/12/23 02:00:45;;;;;;;;;59.75;47.75;;;;;;;;5032429;28;45468;-60
2021/12/23 02:03:12;;;;;;;;;51.50;44.25;;;;;;;;5030111;28;45327;-61
2021/12/23 02:05:37;;;;;;;;;64.00;46.50;;;;;;;;5033434;28;45892;-61
2021/12/23 02:08:02;;;;;;;;;62.00;48.25;;;;;;;;5030200;28;45490;-61
2021/12/23 02:10:28;;;;;;;;;56.50;44.25;;;;;;;;5031325;28;45491;-61
2021/12/23 02:12:54;;;;;;;;;60.25;47.50;;;;;;;;5033034;28;45404;-61
2021/12/23 02:15:19;;;;;;;;;58.75;48.00;;;;;;;;5024025;28;45416;-61
2021/12/23 02:17:45;;;;;;;;;64.25;48.75;;;;;;;;5032159;28;45361;-61
2021/12/23 02:20:12;;;;;;;;;61.50;49.50;;;;;;;;5039148;28;45647;-60
2021/12/23 02:22:39;;;;;;;;;59.25;49.00;;;;;;;;5043827;28;45488;-61
2021/12/23 02:25:05;;;;;;;;;57.00;43.75;;;;;;;;5033366;28;47678;-60
2021/12/23 02:27:32;;;;;;;;;58.50;46.50;;;;;;;;5037378;28;45579;-62
2021/12/23 02:29:57;;;;;;;;;62.50;48.50;;;;;;;;5047445;28;45402;-61
2021/12/23 02:32:22;;;;;;;;;61.50;49.50;;;;;;;;5033145;28;48157;-61
2021/12/23 02:34:47;;;;;;;;;63.00;48.50;;;;;;;;5045083;28;47524;-61
2021/12/23 02:37:14;;;;;;;;;54.25;43.75;;;;;;;;5029812;28;45497;-61
2021/12/23 02:39:39;;;;;;;;;70.75;54.75;;;;;;;;5041976;28;48095;-61
2021/12/23 02:42:05;;;;;;;;;58.75;48.75;;;;;;;;5049196;28;45460;-61
2021/12/23 02:44:30;;;;;;;;;57.00;47.75;;;;;;;;5034938;28;46414;-60
2021/12/23 02:46:55;;;;;;;;;50.00;44.50;;;;;;;;5051201;28;45519;-61
2021/12/23 02:49:21;;;;;;;;;54.50;46.00;;;;;;;;5036176;28;45319;-61
2021/12/23 02:51:46;;;;;;;;;62.25;50.25;;;;;;;;5036426;28;45669;-60
2021/12/23 02:54:11;;;;;;;;;65.75;52.25;;;;;;;;5054162;28;46406;-60
2021/12/23 02:56:36;;;;;;;;;62.75;50.75;;;;;;;;5030703;28;46059;-60
2021/12/23 02:59:01;;;;;;;;;64.75;53.25;;;;;;;;5042067;28;45506;-60
2021/12/23 03:01:27;;;;;;;;;63.75;51.50;;;;;;;;5045559;28;45477;-60
2021/12/23 03:03:52;;;;;;;;;67.50;52.75;;;;;;;;5051431;28;45449;-60
2021/12/23 03:06:19;;;;;;;;;50.00;32.50;;;;;;;;5053029;28;45399;-60
2021/12/23 03:08:46;;;;;;;;;59.00;48.50;;;;;;;;5043126;28;45840;-59
2021/12/23 03:11:12;;;;;;;;;59.25;48.50;;;;;;;;5047985;28;45521;-60
2021/12/23 03:13:38;;;;;;;;;60.00;47.25;;;;;;;;5050204;28;46620;-60
2021/12/23 03:16:04;;;;;;;;;62.75;48.50;;;;;;;;5047552;28;45619;-60
2021/12/23 03:18:30;;;;;;;;;61.25;51.25;;;;;;;;5032515;28;45563;-60
2021/12/23 03:20:55;;;;;;;;;59.25;49.25;;;;;;;;5054247;28;45393;-60
2021/12/23 03:23:21;;;;;;;;;65.25;46.25;;;;;;;;5043575;28;46406;-60
2021/12/23 03:25:46;;;;;;;;;60.50;45.25;;;;;;;;5047152;28;45299;-61
2021/12/23 03:28:11;;;;;;;;;65.00;47.75;;;;;;;;5039275;28;45421;-60
2021/12/23 03:30:36;;;;;;;;;50.50;45.00;;;;;;;;5047079;28;45275;-61
2021/12/23 03:33:02;;;;;;;;;53.75;46.25;;;;;;;;5048385;28;46420;-60
2021/12/23 03:35:27;;;;;;;;;60.50;48.00;;;;;;;;5054090;28;45612;-61
2021/12/23 03:37:53;;;;;;;;;49.75;41.25;;;;;;;;5035972;28;45428;-60
2021/12/23 03:40:19;;;;;;;;;60.00;45.50;;;;;;;;5034924;28;45495;-60
2021/12/23 03:42:44;;;;;;;;;52.50;43.25;;;;;;;;5052359;28;45505;-60
2021/12/23 03:45:09;;;;;;;;;52.25;44.25;;;;;;;;5052787;28;45319;-60
2021/12/23 03:47:35;;;;;;;;;58.00;45.50;;;;;;;;5036171;28;45827;-61
2021/12/23 03:50:01;;;;;;;;;60.50;47.50;;;;;;;;5053686;28;45380;-59
2021/12/23 03:52:26;;;;;;;;;63.50;45.00;;;;;;;;5034507;28;46501;-60
2021/12/23 03:54:51;;;;;;;;;67.25;49.00;;;;;;;;5050475;28;45638;-60
2021/12/23 03:57:16;;;;;;;;;57.75;47.00;;;;;;;;5050406;28;45756;-61
2021/12/23 03:59:42;;;;;;;;;50.75;43.75;;;;;;;;5041499;28;45616;-60
2021/12/23 04:02:07;;;;;;;;;62.25;46.50;;;;;;;;5041892;28;45373;-60
2021/12/23 04:04:32;;;;;;;;;61.75;48.25;;;;;;;;5025309;28;46326;-61
2021/12/23 04:06:57;;;;;;;;;58.25;48.25;;;;;;;;5045256;28;45551;-60
2021/12/23 04:09:22;;;;;;;;;55.25;46.00;;;;;;;;5044720;28;45551;-61
2021/12/23 04:11:48;;;;;;;;;56.00;43.50;;;;;;;;5041718;28;46223;-60
2021/12/23 04:14:13;;;;;;;;;56.50;44.75;;;;;;;;5026939;28;45588;-60
2021/12/23 04:16:38;;;;;;;;;47.00;42.75;;;;;;;;5029045;28;45575;-61
2021/12/23 04:19:07;;;;;;;;;68.50;50.50;;;;;;;;5052553;28;45485;-60
2021/12/23 04:21:32;;;;;;;;;51.75;46.00;;;;;;;;5037499;28;46115;-61
2021/12/23 04:23:58;;;;;;;;;66.00;52.00;;;;;;;;5054009;28;45380;-60
2021/12/23 04:26:23;;;;;;;;;63.50;45.50;;;;;;;;5034993;28;45533;-60
2021/12/23 04:28:48;;;;;;;;;59.00;49.25;;;;;;;;5053398;28;45483;-60
2021/12/23 04:31:18;;;;;;;;;54.25;44.50;;;;;;;;5034343;28;48426;-61
2021/12/23 04:33:44;;;;;;;;;63.00;44.75;;;;;;;;5035009;28;45518;-61
2021/12/23 04:36:09;;;;;;;;;48.00;42.75;;;;;;;;5053590;28;45441;-61
2021/12/23 04:38:38;;;;;;;;;56.25;46.00;;;;;;;;5053894;28;45536;-61
2021/12/23 04:41:04;;;;;;;;;61.25;47.50;;;;;;;;5052608;28;45741;-61
2021/12/23 04:43:29;;;;;;;;;57.00;47.25;;;;;;;;5068361;28;45460;-61
2021/12/23 04:45:54;;;;;;;;;56.50;47.75;;;;;;;;5035138;28;45502;-61
2021/12/23 04:48:19;;;;;;;;;62.50;47.00;;;;;;;;5053338;28;45383;-60
2021/12/23 04:50:45;;;;;;;;;62.25;47.00;;;;;;;;5052585;28;46576;-61
2021/12/23 04:53:10;;;;;;;;;61.00;49.25;;;;;;;;5054563;28;45405;-61
2021/12/23 04:55:35;;;;;;;;;57.25;46.00;;;;;;;;5037547;28;45581;-61
2021/12/23 04:58:00;;;;;;;;;52.00;39.75;;;;;;;;5038409;28;45584;-60
2021/12/23 05:00:26;;;;;;;;;56.75;47.75;;;;;;;;5056328;28;46975;-60
2021/12/23 05:02:51;;;;;;;;;64.75;49.75;;;;;;;;5038038;28;45783;-60
2021/12/23 05:05:17;;;;;;;;;58.75;48.25;;;;;;;;5057674;28;45274;-60
2021/12/23 05:07:42;;;;;;;;;57.75;47.00;;;;;;;;5056546;28;49661;-60
2021/12/23 05:10:09;;;;;;;;;60.75;47.75;;;;;;;;5056010;28;45529;-60
2021/12/23 05:12:42;;;;;;;;;56.25;46.50;;;;;;;;5038305;28;46286;-61
2021/12/23 05:15:11;;;;;;;;;59.75;47.75;;;;;;;;5056881;28;45398;-60
2021/12/23 05:17:37;;;;;;;;;62.75;46.50;;;;;;;;5056003;28;45507;-61
2021/12/23 05:20:03;;;;;;;;;61.50;50.00;;;;;;;;5055806;28;46352;-59
2021/12/23 05:22:29;;;;;;;;;52.25;42.50;;;;;;;;5054762;28;45382;-61
2021/12/23 05:24:54;;;;;;;;;57.25;43.25;;;;;;;;5055768;28;45405;-60
2021/12/23 05:27:19;;;;;;;;;63.25;47.25;;;;;;;;5037861;28;45332;-60
2021/12/23 05:29:44;;;;;;;;;60.00;49.25;;;;;;;;5055057;28;45653;-60
2021/12/23 05:32:09;;;;;;;;;62.25;48.75;;;;;;;;5037038;28;45410;-60
2021/12/23 05:34:35;;;;;;;;;58.00;44.00;;;;;;;;5055084;28;45815;-60
2021/12/23 05:37:00;;;;;;;;;63.25;47.50;;;;;;;;5054884;28;45496;-61
2021/12/23 05:39:25;;;;;;;;;57.75;48.25;;;;;;;;5035907;28;48407;-60
2021/12/23 05:41:50;;;;;;;;;58.75;46.25;;;;;;;;5055560;28;45399;-61
2021/12/23 05:44:15;;;;;;;;;58.75;48.25;;;;;;;;5037567;28;45441;-61
2021/12/23 05:46:41;;;;;;;;;61.50;49.75;;;;;;;;5037353;28;45358;-60
2021/12/23 05:49:06;;;;;;;;;62.75;48.00;;;;;;;;5055464;28;45723;-60
2021/12/23 05:51:31;;;;;;;;;58.25;45.00;;;;;;;;5037523;28;46159;-65
2021/12/23 05:54:00;;;;;;;;;54.00;43.25;;;;;;;;5037760;28;45419;-60
2021/12/23 05:56:25;;;;;;;;;56.25;47.25;;;;;;;;5037686;28;45432;-60
2021/12/23 05:58:50;;;;;;;;;54.25;46.25;;;;;;;;5055254;28;45735;-60
2021/12/23 06:01:15;;;;;;;;;60.50;46.75;;;;;;;;5057188;28;45509;-60
2021/12/23 06:03:41;;;;;;;;;59.75;49.50;;;;;;;;5054821;28;45367;-60
2021/12/23 06:06:07;;;;;;;;;57.25;47.00;;;;;;;;5055587;28;45409;-60
2021/12/23 06:08:32;;;;;;;;;55.50;47.50;;;;;;;;5055687;28;46326;-60
2021/12/23 06:10:57;;;;;;;;;58.25;47.00;;;;;;;;5054343;28;45396;-60
2021/12/23 06:13:22;;;;;;;;;49.00;41.25;;;;;;;;5036482;28;45539;-60
2021/12/23 06:15:47;;;;;;;;;66.50;52.25;;;;;;;;5036978;28;45428;-60
2021/12/23 06:18:13;;;;;;;;;65.25;52.50;;;;;;;;5055084;28;45660;-61
2021/12/23 06:20:38;;;;;;;;;51.00;41.25;;;;;;;;5055378;28;45364;-61
2021/12/23 06:23:04;;;;;;;;;62.25;50.25;;;;;;;;5036882;28;45524;-60
2021/12/23 06:25:29;;;;;;;;;64.50;51.25;;;;;;;;5054224;28;45717;-61
2021/12/23 06:27:55;;;;;;;;;61.25;50.50;;;;;;;;5054911;28;45787;-61
2021/12/23 06:30:21;;;;;;;;;54.50;46.75;;;;;;;;5054822;28;45781;-61
2021/12/23 06:32:48;;;;;;;;;54.25;43.50;;;;;;;;5054078;28;45506;-61
2021/12/23 06:35:13;;;;;;;;;55.25;45.00;;;;;;;;5036593;28;45299;-61
2021/12/23 06:37:38;;;;;;;;;60.75;49.25;;;;;;;;5054641;28;45352;-61
2021/12/23 06:40:04;;;;;;;;;54.75;44.25;;;;;;;;5054787;28;45424;-61
2021/12/23 06:42:29;;;;;;;;;55.00;44.00;;;;;;;;5054864;28;45426;-61
2021/12/23 06:44:54;;;;;;;;;45.25;32.50;;;;;;;;5055554;28;45435;-61
2021/12/23 06:47:20;;;;;;;;;59.75;48.25;;;;;;;;5053576;28;46595;-61
2021/12/23 06:49:47;;;;;;;;;59.25;50.00;;;;;;;;5053598;28;45421;-61
2021/12/23 06:52:12;;;;;;;;;66.50;49.00;;;;;;;;5054966;28;45458;-61
2021/12/23 06:54:42;;;;;;;;;58.50;46.50;;;;;;;;5055140;28;45674;-62
2021/12/23 06:57:07;;;;;;;;;65.25;50.25;;;;;;;;5054803;28;46588;-60
2021/12/23 06:59:32;;;;;;;;;64.75;51.50;;;;;;;;5054609;28;45414;-61
2021/12/23 07:01:58;;;;;;;;;58.25;50.00;;;;;;;;5053998;28;46005;-61
2021/12/23 07:04:28;;;;;;;;;62.50;51.50;;;;;;;;5051808;28;45485;-60
2021/12/23 07:07:07;;;;;;;;;58.75;49.25;;;;;;;;5035734;28;48780;-62
2021/12/23 07:09:32;;;;;;;;;59.75;44.75;;;;;;;;5038393;28;45437;-61
2021/12/23 07:11:58;;;;;;;;;65.25;53.50;;;;;;;;5036981;28;45327;-61
2021/12/23 07:14:23;;;;;;;;;68.25;56.75;;;;;;;;5053409;28;45272;-61
2021/12/23 07:16:48;;;;;;;;;69.50;55.25;;;;;;;;5035453;28;47430;-61
2021/12/23 07:19:13;;;;;;;;;67.50;55.00;;;;;;;;5053894;28;45444;-61
2021/12/23 07:21:38;;;;;;;;;65.00;54.50;;;;;;;;5069954;28;45400;-61
2021/12/23 07:24:04;;;;;;;;;72.50;56.00;;;;;;;;5054284;28;45370;-61
2021/12/23 07:26:29;;;;;;;;;65.75;53.75;;;;;;;;5054084;28;45395;-61
2021/12/23 07:28:54;;;;;;;;;62.50;51.75;;;;;;;;5035758;28;45444;-62
2021/12/23 07:31:19;;;;;;;;;66.50;50.50;;;;;;;;5053477;28;45462;-61
2021/12/23 07:33:45;;;;;;;;;64.00;50.75;;;;;;;;5054243;28;45338;-61
2021/12/23 07:36:10;;;;;;;;;59.25;48.75;;;;;;;;5052405;28;45618;-61
2021/12/23 07:38:35;;;;;;;;;55.50;47.00;;;;;;;;5034059;28;45506;-60
2021/12/23 07:41:01;;;;;;;;;56.50;48.25;;;;;;;;5053170;28;45544;-61
2021/12/23 07:46:02;;;;;;;;;56.50;44.75;;;;;;;;5053548;28;46559;-61
2021/12/23 07:48:27;;;;;;;;;60.25;50.50;;;;;;;;5035441;28;46045;-60
2021/12/23 07:50:53;;;;;;;;;58.50;46.00;;;;;;;;5054624;28;45465;-61
2021/12/23 07:53:19;;;;;;;;;59.25;45.00;;;;;;;;5052846;28;45415;-61
2021/12/23 07:55:44;;;;;;;;;66.25;53.25;;;;;;;;5053455;28;45430;-61
2021/12/23 07:58:09;;;;;;;;;60.00;50.25;;;;;;;;5053746;28;45384;-61
2021/12/23 08:00:35;;;;;;;;;59.00;47.00;;;;;;;;5035999;28;45802;-61
2021/12/23 08:03:00;;;;;;;;;54.50;45.00;;;;;;;;5054607;28;45409;-61
2021/12/23 08:05:26;;;;;;;;;59.50;49.00;;;;;;;;5052407;28;46193;-61
2021/12/23 08:07:53;;;;;;;;;59.50;48.25;;;;;;;;5053529;28;45334;-62
2021/12/23 08:10:18;;;;;;;;;61.25;49.50;;;;;;;;5035378;28;45362;-61
2021/12/23 08:12:44;;;;;;;;;66.50;50.75;;;;;;;;5052807;28;45476;-61
2021/12/23 08:15:09;;;;;;;;;57.00;47.75;;;;;;;;5018418;28;48037;-60
2021/12/23 08:17:34;;;;;;;;;65.00;50.75;;;;;;;;5053524;28;45409;-61
2021/12/23 08:20:00;;;;;;;;;60.75;48.50;;;;;;;;5053365;28;45374;-60
2021/12/23 08:22:25;;;;;;;;;62.50;49.00;;;;;;;;5053617;28;45319;-61
2021/12/23 08:24:50;;;;;;;;;56.25;46.50;;;;;;;;5034932;28;45739;-71
2021/12/23 08:27:15;;;;;;;;;59.75;48.00;;;;;;;;5055927;28;46279;-65
2021/12/23 08:29:40;;;;;;;;;61.00;50.50;;;;;;;;5028420;28;45395;-65
2021/12/23 08:32:06;;;;;;;;;63.50;48.50;;;;;;;;5048820;28;45643;-64
2021/12/23 08:34:34;;;;;;;;;63.50;49.75;;;;;;;;5033385;28;47428;-66
2021/12/23 08:36:59;;;;;;;;;64.50;50.25;;;;;;;;5053064;28;45444;-65
2021/12/23 08:39:25;;;;;;;;;58.25;49.50;;;;;;;;5047961;28;45455;-65
2021/12/23 08:41:50;;;;;;;;;57.50;48.00;;;;;;;;5028616;28;45384;-65
2021/12/23 08:44:15;;;;;;;;;53.25;44.50;;;;;;;;5028934;28;47321;-62
2021/12/23 08:46:44;;;;;;;;;54.75;45.25;;;;;;;;5029878;28;45689;-62
2021/12/23 08:49:09;;;;;;;;;66.00;52.00;;;;;;;;5047470;28;45709;-63
2021/12/23 08:51:35;;;;;;;;;57.50;47.50;;;;;;;;5048287;28;45488;-63
2021/12/23 08:54:00;;;;;;;;;52.00;38.25;;;;;;;;5054842;28;46391;-62
2021/12/23 08:56:25;;;;;;;;;60.25;48.50;;;;;;;;5047591;28;45454;-62
2021/12/23 08:58:51;;;;;;;;;53.00;42.00;;;;;;;;5029261;28;45437;-62
2021/12/23 09:01:16;;;;;;;;;30.00;21.75;;;;;;;;5028599;28;45475;-62
2021/12/23 09:03:42;;;;;;;;;50.50;40.50;;;;;;;;5048878;28;45565;-63
2021/12/23 09:06:07;;;;;;;;;49.00;42.00;;;;;;;;5047264;28;45371;-63
2021/12/23 09:08:32;;;;;;;;;49.75;41.50;;;;;;;;5054831;28;45401;-63
2021/12/23 09:10:58;;;;;;;;;44.50;40.00;;;;;;;;5031022;28;45390;-62
2021/12/23 09:13:24;;;;;;;;;58.50;44.25;;;;;;;;5067346;27;48393;-63
2021/12/23 09:15:51;;;;;;;;;54.25;45.25;;;;;;;;5035049;28;46446;-63
2021/12/23 09:18:16;;;;;;;;;57.00;46.00;;;;;;;;5050520;28;45666;-62
2021/12/23 09:20:41;;;;;;;;;49.75;40.75;;;;;;;;5045864;28;45473;-63
2021/12/23 09:23:07;;;;;;;;;49.00;39.00;;;;;;;;5052597;28;46366;-62
2021/12/23 09:25:33;;;;;;;;;48.75;42.75;;;;;;;;5056662;28;45401;-63
2021/12/23 09:28:07;;;;;;;;;46.25;41.25;;;;;;;;5056544;28;45325;-62
2021/12/23 09:33:16;;;;;;;;;50.75;44.25;;;;;;;;5054656;28;45524;-63
2021/12/23 09:35:42;;;;;;;;;56.25;43.00;;;;;;;;5057263;28;45358;-62
2021/12/23 09:38:08;;;;;;;;;50.00;40.00;;;;;;;;5035677;28;45429;-62
2021/12/23 09:40:33;;;;;;;;;55.00;42.50;;;;;;;;5039687;28;45411;-62
2021/12/23 09:43:03;;;;;;;;;48.75;40.25;;;;;;;;5058130;28;45444;-62
2021/12/23 09:45:29;;;;;;;;;55.75;43.75;;;;;;;;5056261;28;45323;-61
2021/12/23 09:47:56;;;;;;;;;42.75;37.75;;;;;;;;5038781;28;45326;-62
2021/12/23 09:50:23;;;;;;;;;56.50;43.50;;;;;;;;5055860;28;45444;-62
2021/12/23 09:52:50;;;;;;;;;47.00;40.50;;;;;;;;5035626;28;48460;-62
2021/12/23 09:55:18;;;;;;;;;51.75;43.75;;;;;;;;5037688;28;45494;-62
2021/12/23 09:57:47;;;;;;;;;50.50;43.50;;;;;;;;5038224;28;45511;-61
2021/12/23 10:00:13;;;;;;;;;50.00;40.75;;;;;;;;5056330;28;45256;-62
2021/12/23 10:02:41;;;;;;;;;50.00;39.50;;;;;;;;5055367;28;46579;-62
2021/12/23 10:05:11;;;;;;;;;49.25;42.75;;;;;;;;5055862;28;45444;-62
2021/12/23 10:07:36;;;;;;;;;48.50;43.25;;;;;;;;5054926;28;45474;-63
2021/12/23 10:10:28;;;;;;;;;52.75;41.00;;;;;;;;5056232;28;45469;-61
2021/12/23 10:37:32;;;;;;;;;43.25;38.00;;;;;;;;5051549;28;45415;-62
2021/12/23 10:40:03;;;;;;;;;49.75;37.75;;;;;;;;5039343;28;45474;-62
2021/12/23 10:42:28;;;;;;;;;35.00;33.50;;;;;;;;5049442;28;45358;-62
2021/12/23 10:44:53;;;;;;;;;45.25;38.50;;;;;;;;5037450;28;48621;-63
2021/12/23 10:47:53;;;;;;;;;33.75;28.25;;;;;;;;5053397;28;45531;-62
2021/12/23 10:50:23;;;;;;;;;37.00;35.00;;;;;;;;5042933;28;45456;-62
2021/12/23 10:52:52;;;;;;;;;41.25;37.50;;;;;;;;5052534;28;45288;-62
2021/12/23 11:00:30;;;;;;;;;38.25;36.00;;;;;;;;5053113;28;45463;-61
2021/12/23 11:03:03;;;;;;;;;40.50;31.75;;;;;;;;5054605;28;45497;-62
2021/12/23 11:05:33;;;;;;;;;49.00;39.50;;;;;;;;5067015;27;45867;-62
2021/12/23 11:27:48;;;;;;;;;54.75;45.25;;;;;;;;5027438;28;45820;-62
2021/12/23 11:38:22;;;;;;;;;58.75;46.00;;;;;;;;5031065;28;45691;-63
2021/12/23 11:40:52;;;;;;;;;38.75;34.25;;;;;;;;5029895;28;45489;-63
2021/12/23 11:45:45;;;;;;;;;55.25;44.25;;;;;;;;5030552;28;45644;-63
2021/12/23 11:48:11;;;;;;;;;53.00;39.25;;;;;;;;5031368;28;45727;-63
2021/12/23 11:50:52;;;;;;;;;51.50;40.00;;;;;;;;5046839;28;45492;-62
2021/12/23 11:53:18;;;;;;;;;53.00;40.00;;;;;;;;5061376;27;45764;-63
2021/12/23 11:55:44;;;;;;;;;47.00;41.25;;;;;;;;5034818;28;45563;-63
2021/12/23 11:58:10;;;;;;;;;61.00;49.50;;;;;;;;5058114;28;46340;-64
2021/12/23 12:00:42;;;;;;;;;53.25;42.25;;;;;;;;5051060;28;45301;-62
2021/12/23 12:03:08;;;;;;;;;34.00;28.25;;;;;;;;5055217;28;45493;-63
2021/12/23 12:05:33;;;;;;;;;61.75;50.75;;;;;;;;5035309;28;45638;-62
2021/12/23 12:08:07;;;;;;;;;52.50;42.50;;;;;;;;5051058;28;46112;-62
2021/12/23 12:10:34;;;;;;;;;42.75;39.75;;;;;;;;5055279;28;45271;-65
2021/12/23 12:13:02;;;;;;;;;42.00;37.50;;;;;;;;5037693;28;45431;-63
2021/12/23 12:15:48;;;;;;;;;51.50;42.25;;;;;;;;5043086;28;45669;-63
2021/12/23 12:18:23;;;;;;;;;41.75;34.25;;;;;;;;5033622;28;47658;-62
2021/12/23 12:20:56;;;;;;;;;43.00;36.50;;;;;;;;5049690;28;45366;-62
2021/12/23 12:23:22;;;;;;;;;35.75;30.75;;;;;;;;5039047;28;45480;-62
2021/12/23 12:25:49;;;;;;;;;38.75;31.75;;;;;;;;5040744;28;48806;-62
2021/12/23 12:28:17;;;;;;;;;32.00;30.75;;;;;;;;5067432;28;46291;-63
2021/12/23 12:30:50;;;;;;;;;48.50;39.25;;;;;;;;5056736;28;45439;-63
2021/12/23 12:33:18;;;;;;;;;41.00;34.00;;;;;;;;5057610;28;45414;-63
2021/12/23 12:35:48;;;;;;;;;34.50;33.50;;;;;;;;5041707;28;45565;-63
2021/12/23 12:38:23;;;;;;;;;40.75;36.25;;;;;;;;5056342;28;45479;-63
2021/12/23 12:41:00;;;;;;;;;34.00;34.00;;;;;;;;5061542;28;45403;-63
2021/12/23 12:43:41;;;;;;;;;34.00;33.25;;;;;;;;5036587;28;45489;-64
2021/12/23 12:46:06;;;;;;;;;36.50;35.00;;;;;;;;5041289;28;46922;-65
2021/12/23 12:49:01;;;;;;;;;40.00;33.00;;;;;;;;5054434;28;45935;-63
2021/12/23 12:51:28;;;;;;;;;36.50;33.75;;;;;;;;5064193;28;45440;-63
2021/12/23 12:53:56;;;;;;;;;45.75;38.50;;;;;;;;5061208;28;45538;-63
2021/12/23 12:56:27;;;;;;;;;45.25;37.00;;;;;;;;5059368;28;45378;-68
2021/12/23 12:58:55;;;;;;;;;42.00;35.25;;;;;;;;5062951;28;46196;-63
2021/12/23 13:01:30;;;;;;;;;48.00;40.50;;;;;;;;5054264;28;45924;-63
2021/12/23 13:03:55;;;;;;;;;39.25;33.75;;;;;;;;5058156;28;45371;-62
2021/12/23 13:06:20;;;;;;;;;26.00;22.75;;;;;;;;5058646;28;45641;-63
2021/12/23 13:08:45;;;;;;;;;33.00;31.00;;;;;;;;5064494;28;46598;-64
2021/12/23 13:11:13;;;;;;;;;32.00;30.00;;;;;;;;5073949;27;46205;-63
2021/12/23 13:13:43;;;;;;;;;27.75;27.00;;;;;;;;5054014;28;45441;-64
2021/12/23 13:16:12;;;;;;;;;28.75;25.75;;;;;;;;5066866;28;45524;-63
2021/12/23 13:18:38;;;;;;;;;32.00;29.00;;;;;;;;5052784;28;46833;-63
2021/12/23 13:21:05;;;;;;;;;33.00;29.00;;;;;;;;5060679;28;45338;-62
2021/12/23 13:23:32;;;;;;;;;29.75;28.25;;;;;;;;5039309;28;45745;-63
2021/12/23 13:26:02;;;;;;;;;27.75;24.50;;;;;;;;5039151;28;45418;-63
2021/12/23 13:28:27;;;;;;;;;26.00;22.50;;;;;;;;5076749;27;48673;-62
2021/12/23 13:30:53;;;;;;;;;49.50;39.50;;;;;;;;5052456;28;45314;-61
2021/12/23 13:33:18;;;;;;;;;41.75;36.75;;;;;;;;5034202;28;45501;-62
2021/12/23 13:35:44;;;;;;;;;30.50;27.75;;;;;;;;5046361;28;45578;-61
2021/12/23 13:38:10;;;;;;;;;27.25;23.25;;;;;;;;5052937;28;46634;-63
2021/12/23 13:40:38;;;;;;;;;29.25;26.00;;;;;;;;5041940;28;45431;-63
2021/12/23 13:43:03;;;;;;;;;23.00;21.25;;;;;;;;5039051;28;45374;-64
2021/12/23 13:45:30;;;;;;;;;28.50;28.00;;;;;;;;5030130;28;45358;-64
2021/12/23 13:47:56;;;;;;;;;31.00;30.00;;;;;;;;5031122;28;48548;-63
2021/12/23 13:50:22;;;;;;;;;33.75;30.25;;;;;;;;5032050;28;46319;-64
2021/12/23 13:52:49;;;;;;;;;29.25;25.75;;;;;;;;5036219;28;45599;-64
2021/12/23 13:55:23;;;;;;;;;26.25;25.25;;;;;;;;5051112;28;45440;-63
2021/12/23 13:57:55;;;;;;;;;34.25;31.25;;;;;;;;5052129;28;45470;-64
2021/12/23 14:00:25;;;;;;;;;23.75;22.50;;;;;;;;5054598;28;45761;-62
2021/12/23 14:02:53;;;;;;;;;28.75;26.25;;;;;;;;5052693;28;45378;-63
2021/12/23 14:05:19;;;;;;;;;24.75;23.75;;;;;;;;5051134;28;45489;-63
2021/12/23 14:07:46;;;;;;;;;24.75;23.50;;;;;;;;5036511;28;48416;-61
2021/12/23 14:10:11;;;;;;;;;28.00;23.00;;;;;;;;5033962;28;45369;-62
2021/12/23 14:12:40;;;;;;;;;23.50;23.50;;;;;;;;5051057;28;45406;-64
2021/12/23 14:15:07;;;;;;;;;25.00;24.00;;;;;;;;5056408;28;45299;-63
2021/12/23 14:17:39;;;;;;;;;24.25;22.50;;;;;;;;5049896;28;46952;-63
2021/12/23 14:23:12;;;;;;;;;23.00;20.25;;;;;;;;4992651;28;45479;-63
2021/12/23 14:25:51;;;;;;;;;23.75;23.50;;;;;;;;4992751;28;45521;-62
2021/12/23 14:28:18;;;;;;;;;25.25;25.25;;;;;;;;4989898;28;48409;-63
2021/12/23 14:30:49;;;;;;;;;26.50;25.25;;;;;;;;4994296;28;45603;-62
2021/12/23 14:33:37;;;;;;;;;25.75;23.00;;;;;;;;4991573;28;45557;-65
2021/12/23 14:36:05;;;;;;;;;29.50;28.75;;;;;;;;4987571;28;45480;-62
2021/12/23 14:38:32;;;;;;;;;23.75;22.75;;;;;;;;4991493;28;45481;-63
2021/12/23 14:41:18;;;;;;;;;26.00;25.00;;;;;;;;5006874;28;45441;-63
2021/12/23 14:43:51;;;;;;;;;27.00;24.25;;;;;;;;4967473;28;46033;-63
2021/12/23 14:46:16;;;;;;;;;25.00;23.25;;;;;;;;4990050;28;45497;-63
2021/12/23 14:49:07;;;;;;;;;23.00;22.00;;;;;;;;4991555;28;46330;-63
2021/12/23 14:51:35;;;;;;;;;31.75;29.75;;;;;;;;4991748;28;45464;-63
2021/12/23 14:54:06;;;;;;;;;35.75;31.75;;;;;;;;4987619;28;45363;-63
2021/12/23 14:56:31;;;;;;;;;32.25;32.25;;;;;;;;5007762;28;45657;-63
2021/12/23 14:59:08;;;;;;;;;28.50;24.50;;;;;;;;5016555;28;45448;-62
2021/12/23 15:01:34;;;;;;;;;29.75;27.00;;;;;;;;5037160;28;45460;-62
2021/12/23 15:04:04;;;;;;;;;29.00;27.50;;;;;;;;5046704;28;45271;-63
2021/12/23 15:06:29;;;;;;;;;28.25;26.50;;;;;;;;5036040;28;45414;-62
2021/12/23 15:08:54;;;;;;;;;28.50;26.50;;;;;;;;5044851;28;48580;-62
2021/12/23 15:11:25;;;;;;;;;26.50;25.00;;;;;;;;5035850;28;45373;-63
2021/12/23 15:13:51;;;;;;;;;30.00;28.75;;;;;;;;5029545;28;45492;-62
2021/12/23 15:16:28;;;;;;;;;30.00;28.00;;;;;;;;5045366;28;45461;-63
2021/12/23 15:19:42;;;;;;;;;28.75;27.50;;;;;;;;5033571;28;48381;-64
2021/12/23 15:21:49;;;;;;;;;33.25;26.00;;;;;;;;5041222;28;45700;-63
2021/12/23 15:24:15;;;;;;;;;26.00;25.75;;;;;;;;5056128;28;45332;-62
2021/12/23 15:26:48;;;;;;;;;25.00;23.50;;;;;;;;5061519;28;48760;-63
2021/12/23 15:29:13;;;;;;;;;31.75;27.50;;;;;;;;5055501;28;45742;-64
2021/12/23 15:31:39;;;;;;;;;29.00;26.50;;;;;;;;5042419;28;46181;-62
2021/12/23 15:34:08;;;;;;;;;30.50;27.75;;;;;;;;5035053;28;45512;-62